Time;durP1;ratioP1;P1;durP2;ratioP2;P2;SDS_P1;SDS_P2;PMS_P1;PMS_P2;Temp;Humidity;BMP_temperature;BMP_pressure;BME280_temperature;BME280_humidity;BME280_pressure;Samples;Min_cycle;Max_cycle;Signal;HPM_P1;HPM_P2
2023/11/11 04:05:27;;;;;;;0.30;0.30;;;7.80;99.90;;;;;;5764361;23;20234;-63
2023/11/11 04:07:53;;;;;;;0.40;0.40;;;7.80;99.90;;;;;;4957630;28;20211;-64
2023/11/11 04:10:19;;;;;;;0.30;0.30;;;7.80;99.90;;;;;;4975165;28;20208;-64
2023/11/11 04:12:45;;;;;;;0.40;0.40;;;7.80;99.90;;;;;;4975048;28;20256;-63
2023/11/11 04:15:11;;;;;;;0.30;0.30;;;7.90;99.90;;;;;;4974599;28;20322;-64
2023/11/11 04:17:42;;;;;;;0.30;0.30;;;7.90;99.90;;;;;;4974933;28;20215;-63
2023/11/11 04:20:11;;;;;;;0.40;0.40;;;7.90;99.90;;;;;;4974881;28;20654;-64
2023/11/11 04:22:38;;;;;;;0.30;0.30;;;7.90;99.90;;;;;;4974870;28;20172;-63
2023/11/11 04:25:06;;;;;;;0.40;0.40;;;7.90;99.90;;;;;;4974427;28;20196;-64
2023/11/11 04:27:35;;;;;;;0.30;0.30;;;8.00;99.90;;;;;;4974840;28;20206;-64
2023/11/11 04:30:03;;;;;;;0.30;0.30;;;8.00;99.90;;;;;;4974609;28;20247;-64
2023/11/11 04:32:29;;;;;;;0.47;0.47;;;8.00;99.90;;;;;;4974778;28;20571;-63
2023/11/11 04:34:54;;;;;;;0.30;0.30;;;8.00;99.90;;;;;;4973791;28;20223;-64
2023/11/11 04:37:20;;;;;;;0.30;0.30;;;8.00;99.90;;;;;;4974296;28;20180;-64
2023/11/11 04:39:46;;;;;;;0.30;0.30;;;8.00;99.90;;;;;;4974617;28;20179;-64
2023/11/11 04:42:16;;;;;;;0.30;0.30;;;8.00;99.90;;;;;;4974758;28;20170;-63
2023/11/11 04:44:42;;;;;;;0.30;0.30;;;8.00;99.90;;;;;;4974350;28;20176;-64
2023/11/11 04:47:08;;;;;;;0.30;0.30;;;8.00;99.90;;;;;;4974519;28;20218;-64
2023/11/11 04:49:34;;;;;;;0.30;0.30;;;8.00;99.90;;;;;;4974541;28;20172;-64
2023/11/11 04:52:00;;;;;;;0.33;0.33;;;8.00;99.90;;;;;;4974674;28;20192;-64
2023/11/11 04:54:26;;;;;;;0.30;0.30;;;8.00;99.90;;;;;;4974198;28;20168;-63
2023/11/11 04:56:54;;;;;;;0.40;0.40;;;8.00;99.90;;;;;;4957164;28;20249;-64
2023/11/11 04:59:19;;;;;;;0.30;0.20;;;8.00;99.90;;;;;;4974362;28;20204;-64
2023/11/11 05:01:45;;;;;;;0.30;0.20;;;8.00;99.90;;;;;;4974387;28;20203;-64
2023/11/11 05:04:11;;;;;;;0.30;0.30;;;8.00;99.90;;;;;;4974306;28;20640;-63
2023/11/11 05:06:36;;;;;;;0.30;0.30;;;8.00;99.90;;;;;;4973915;28;20214;-63
2023/11/11 05:09:04;;;;;;;0.30;0.30;;;8.00;99.90;;;;;;4974411;28;20478;-63
2023/11/11 05:11:30;;;;;;;0.30;0.30;;;8.00;99.90;;;;;;4974482;28;20168;-64
2023/11/11 05:13:56;;;;;;;0.30;0.30;;;7.90;99.90;;;;;;4973927;28;20168;-64
2023/11/11 05:16:27;;;;;;;0.30;0.30;;;8.00;99.90;;;;;;4974418;28;20679;-63
2023/11/11 05:18:53;;;;;;;0.30;0.30;;;7.90;99.90;;;;;;4974338;28;20211;-64
2023/11/11 05:21:19;;;;;;;0.30;0.30;;;7.90;99.90;;;;;;4974324;28;20172;-63
2023/11/11 05:23:46;;;;;;;0.30;0.30;;;7.90;99.90;;;;;;4974035;28;20191;-66
2023/11/11 05:26:13;;;;;;;0.38;0.38;;;7.80;99.90;;;;;;4973654;28;20287;-63
2023/11/11 05:28:40;;;;;;;0.40;0.40;;;7.80;99.90;;;;;;4974086;28;20172;-63
2023/11/11 05:31:06;;;;;;;0.30;0.30;;;7.70;99.90;;;;;;4974139;28;20581;-63
2023/11/11 05:33:32;;;;;;;0.30;0.30;;;7.70;99.90;;;;;;4974408;28;20256;-63
2023/11/11 05:35:57;;;;;;;0.30;0.20;;;7.70;99.90;;;;;;4973768;28;20732;-63
2023/11/11 05:38:23;;;;;;;0.40;0.40;;;7.60;99.90;;;;;;4974145;28;20168;-63
2023/11/11 05:40:49;;;;;;;0.30;0.30;;;7.50;99.90;;;;;;4974158;28;20175;-64
2023/11/11 05:43:14;;;;;;;0.30;0.30;;;7.50;99.90;;;;;;4974064;28;20176;-62
2023/11/11 05:45:40;;;;;;;0.30;0.30;;;7.50;99.90;;;;;;4973692;28;20200;-63
2023/11/11 05:48:06;;;;;;;0.30;0.30;;;7.40;99.90;;;;;;4974006;28;20282;-63
2023/11/11 05:50:31;;;;;;;0.30;0.30;;;7.40;99.90;;;;;;4975632;28;20197;-62
2023/11/11 05:52:57;;;;;;;0.30;0.20;;;7.40;99.90;;;;;;4977626;28;20176;-62
2023/11/11 05:55:24;;;;;;;0.30;0.30;;;7.40;99.90;;;;;;4977072;28;20195;-63
2023/11/11 05:57:51;;;;;;;0.30;0.30;;;7.40;99.90;;;;;;4977486;28;20254;-62
2023/11/11 06:00:16;;;;;;;0.40;0.40;;;7.40;99.90;;;;;;4977437;28;20284;-62
2023/11/11 06:02:43;;;;;;;0.30;0.30;;;7.40;99.90;;;;;;4977604;28;20208;-64
2023/11/11 06:05:08;;;;;;;0.30;0.30;;;7.40;99.90;;;;;;4976974;28;20937;-63
2023/11/11 06:07:34;;;;;;;0.30;0.30;;;7.30;99.90;;;;;;4977077;28;20210;-63
2023/11/11 06:10:00;;;;;;;0.30;0.30;;;7.30;99.90;;;;;;4960120;28;20253;-63
2023/11/11 06:12:26;;;;;;;0.30;0.30;;;7.30;99.90;;;;;;4977109;28;20402;-63
2023/11/11 06:14:51;;;;;;;0.30;0.30;;;7.20;99.90;;;;;;4976959;28;20590;-62
2023/11/11 06:17:17;;;;;;;0.33;0.33;;;7.20;99.90;;;;;;4977154;28;20272;-61
2023/11/11 06:19:43;;;;;;;0.30;0.30;;;7.20;99.90;;;;;;4977274;28;20255;-62
2023/11/11 06:22:10;;;;;;;0.30;0.30;;;7.20;99.90;;;;;;4977069;28;20599;-64
2023/11/11 06:24:36;;;;;;;0.30;0.30;;;7.20;99.90;;;;;;4976832;28;20266;-65
2023/11/11 06:27:02;;;;;;;0.30;0.30;;;7.20;99.90;;;;;;4977125;28;20229;-64
2023/11/11 06:29:28;;;;;;;0.40;0.40;;;7.20;99.90;;;;;;4976816;28;20253;-63
2023/11/11 06:31:53;;;;;;;0.30;0.30;;;7.30;99.90;;;;;;4976994;28;20199;-64
2023/11/11 06:34:19;;;;;;;0.37;0.37;;;7.20;99.90;;;;;;4976629;28;20226;-64
2023/11/11 06:36:45;;;;;;;0.40;0.40;;;7.30;99.90;;;;;;4976829;28;20656;-63
2023/11/11 06:39:13;;;;;;;0.30;0.30;;;7.30;99.90;;;;;;4976680;28;20175;-63
2023/11/11 06:41:38;;;;;;;0.30;0.30;;;7.30;99.90;;;;;;4977196;28;20172;-63
2023/11/11 06:44:05;;;;;;;0.30;0.30;;;7.30;99.90;;;;;;4976712;28;20259;-64
2023/11/11 06:46:30;;;;;;;0.30;0.30;;;7.30;99.90;;;;;;4978337;28;20462;-63
2023/11/11 06:48:57;;;;;;;0.30;0.30;;;7.40;99.90;;;;;;4977774;28;20188;-64
2023/11/11 06:51:24;;;;;;;0.30;0.30;;;7.40;99.90;;;;;;4978119;28;20169;-63
2023/11/11 06:53:50;;;;;;;0.30;0.30;;;7.50;99.90;;;;;;4977000;28;20172;-64
2023/11/11 06:56:16;;;;;;;0.30;0.30;;;7.50;99.90;;;;;;4976829;28;20192;-63
2023/11/11 06:58:42;;;;;;;0.30;0.30;;;7.50;99.90;;;;;;4978648;28;20404;-63
2023/11/11 07:01:08;;;;;;;0.30;0.30;;;7.50;99.90;;;;;;4977148;28;20179;-64
2023/11/11 07:03:39;;;;;;;0.30;0.30;;;7.60;99.90;;;;;;4976197;28;20182;-64
2023/11/11 07:06:05;;;;;;;0.30;0.30;;;7.60;99.90;;;;;;4958444;28;20234;-64
2023/11/11 07:08:32;;;;;;;0.30;0.30;;;7.70;99.90;;;;;;4976306;28;20175;-64
2023/11/11 07:10:57;;;;;;;0.30;0.30;;;7.70;99.90;;;;;;4958855;28;20320;-64
2023/11/11 07:13:23;;;;;;;0.30;0.30;;;7.70;99.90;;;;;;4976157;28;20266;-63
2023/11/11 07:15:50;;;;;;;0.30;0.30;;;7.70;99.90;;;;;;4975704;28;20208;-64
2023/11/11 07:18:16;;;;;;;0.30;0.30;;;7.70;99.90;;;;;;4976121;28;20176;-64
2023/11/11 07:20:42;;;;;;;0.30;0.30;;;7.80;99.90;;;;;;4975980;28;20259;-63
2023/11/11 07:23:08;;;;;;;0.30;0.30;;;7.80;99.90;;;;;;4976071;28;20211;-63
2023/11/11 07:25:34;;;;;;;0.30;0.30;;;7.80;99.90;;;;;;4975447;28;20431;-64
2023/11/11 07:28:02;;;;;;;0.40;0.40;;;7.80;99.90;;;;;;4976079;28;20226;-64
2023/11/11 07:30:28;;;;;;;0.40;0.40;;;7.90;99.90;;;;;;4975780;28;20628;-63
2023/11/11 07:32:54;;;;;;;0.30;0.30;;;7.90;99.90;;;;;;4975476;28;20168;-63
2023/11/11 07:35:20;;;;;;;0.30;0.30;;;7.90;99.90;;;;;;4974550;28;20428;-64
2023/11/11 07:37:46;;;;;;;0.40;0.40;;;7.90;99.90;;;;;;4975339;28;20251;-63
2023/11/11 07:40:14;;;;;;;0.30;0.30;;;8.00;99.90;;;;;;4975412;28;20628;-62
2023/11/11 07:42:40;;;;;;;0.30;0.30;;;8.00;99.90;;;;;;4975324;28;20177;-63
2023/11/11 07:45:06;;;;;;;0.40;0.40;;;8.00;99.90;;;;;;4974934;28;20188;-64
2023/11/11 07:47:32;;;;;;;0.37;0.37;;;8.00;99.90;;;;;;4975153;28;20196;-62
2023/11/11 07:49:58;;;;;;;0.40;0.40;;;8.00;99.90;;;;;;4975219;28;20416;-65
2023/11/11 07:52:25;;;;;;;0.30;0.30;;;8.10;99.90;;;;;;4975216;28;20174;-65
2023/11/11 07:54:50;;;;;;;0.30;0.30;;;8.10;99.90;;;;;;4974621;28;20164;-63
2023/11/11 07:57:16;;;;;;;0.30;0.30;;;8.10;99.90;;;;;;4975036;28;20191;-65
2023/11/11 07:59:43;;;;;;;0.30;0.30;;;8.20;99.90;;;;;;4975232;28;20168;-64
2023/11/11 08:02:12;;;;;;;0.30;0.30;;;8.20;99.90;;;;;;4957561;28;20259;-64
2023/11/11 08:04:38;;;;;;;0.30;0.30;;;8.30;99.90;;;;;;4974302;28;20396;-65
2023/11/11 08:07:05;;;;;;;0.30;0.30;;;8.30;99.90;;;;;;4974624;28;20211;-64
2023/11/11 08:09:32;;;;;;;0.30;0.30;;;8.30;99.90;;;;;;4974799;28;20288;-64
2023/11/11 08:11:58;;;;;;;0.30;0.30;;;8.30;99.90;;;;;;4974757;28;20215;-65
2023/11/11 08:14:24;;;;;;;0.30;0.30;;;8.30;99.90;;;;;;4973936;28;20168;-65
2023/11/11 08:16:50;;;;;;;0.30;0.30;;;8.40;99.90;;;;;;4974531;28;20544;-64
2023/11/11 08:19:16;;;;;;;0.30;0.30;;;8.40;99.90;;;;;;4974609;28;20411;-64
2023/11/11 08:21:41;;;;;;;0.30;0.20;;;8.40;99.90;;;;;;4974653;28;20176;-64
2023/11/11 08:24:08;;;;;;;0.30;0.30;;;8.40;99.90;;;;;;4974329;28;20199;-63
2023/11/11 08:26:33;;;;;;;0.30;0.30;;;8.40;99.90;;;;;;4974588;28;20455;-64
2023/11/11 08:28:59;;;;;;;0.30;0.30;;;8.40;99.90;;;;;;4974694;28;20168;-65
2023/11/11 08:31:25;;;;;;;0.30;0.30;;;8.50;99.90;;;;;;4974468;28;20498;-65
2023/11/11 08:33:51;;;;;;;0.30;0.30;;;8.60;99.90;;;;;;4974303;28;20176;-65
2023/11/11 08:36:17;;;;;;;0.30;0.20;;;8.60;99.90;;;;;;4974543;28;20202;-64
2023/11/11 08:38:43;;;;;;;0.30;0.30;;;8.70;99.90;;;;;;4974375;28;20168;-63
2023/11/11 08:41:09;;;;;;;0.30;0.30;;;8.70;99.90;;;;;;4974409;28;20183;-64
2023/11/11 08:43:35;;;;;;;0.30;0.30;;;8.80;99.90;;;;;;4974159;28;20179;-63
2023/11/11 08:46:01;;;;;;;0.30;0.30;;;8.80;99.90;;;;;;4973694;28;20279;-64
2023/11/11 08:48:28;;;;;;;0.30;0.30;;;8.90;99.90;;;;;;4973907;28;20239;-63
2023/11/11 08:50:54;;;;;;;0.30;0.30;;;8.90;99.90;;;;;;4973972;28;20467;-63
2023/11/11 08:53:19;;;;;;;0.30;0.30;;;9.00;99.90;;;;;;4974691;28;20247;-64
2023/11/11 08:55:45;;;;;;;0.30;0.30;;;9.00;99.90;;;;;;4974212;28;20267;-65
2023/11/11 08:58:11;;;;;;;0.30;0.30;;;9.00;99.90;;;;;;4974339;28;20169;-63
2023/11/11 09:00:36;;;;;;;0.30;0.30;;;9.00;99.90;;;;;;4972938;28;20534;-64
2023/11/11 09:03:04;;;;;;;0.30;0.30;;;9.10;99.90;;;;;;4972186;28;20207;-64
2023/11/11 09:05:30;;;;;;;0.30;0.20;;;9.00;99.90;;;;;;4971906;28;20604;-63
2023/11/11 09:07:56;;;;;;;0.30;0.30;;;9.00;99.90;;;;;;4971969;28;20619;-64
2023/11/11 09:10:21;;;;;;;0.30;0.30;;;9.10;99.90;;;;;;4972180;28;20166;-66
2023/11/11 09:12:48;;;;;;;0.30;0.30;;;9.20;99.90;;;;;;4972233;28;20170;-66
2023/11/11 09:15:16;;;;;;;0.30;0.30;;;9.20;99.90;;;;;;4972595;28;20188;-65
2023/11/11 09:17:42;;;;;;;0.30;0.30;;;9.20;99.90;;;;;;4974253;28;20172;-64
2023/11/11 09:20:09;;;;;;;0.30;0.30;;;9.20;99.90;;;;;;4974110;28;20325;-64
2023/11/11 09:22:36;;;;;;;0.30;0.30;;;9.20;99.90;;;;;;4974012;28;20569;-64
2023/11/11 09:25:03;;;;;;;0.40;0.40;;;9.20;99.90;;;;;;4974680;28;20195;-65
2023/11/11 09:27:28;;;;;;;0.30;0.30;;;9.20;99.90;;;;;;4977983;28;20283;-64
2023/11/11 09:29:54;;;;;;;0.30;0.30;;;9.30;99.90;;;;;;4977945;28;20315;-65
2023/11/11 09:32:20;;;;;;;0.30;0.30;;;9.30;99.90;;;;;;4960641;28;20188;-65
2023/11/11 09:34:47;;;;;;;0.30;0.20;;;9.40;99.90;;;;;;4977551;28;20168;-64
2023/11/11 09:37:12;;;;;;;0.30;0.30;;;9.40;99.90;;;;;;4960860;28;20541;-64
2023/11/11 09:39:38;;;;;;;0.30;0.30;;;9.50;99.90;;;;;;4977874;28;20172;-63
2023/11/11 09:42:05;;;;;;;0.30;0.30;;;9.60;99.90;;;;;;4977962;28;20172;-64
2023/11/11 09:44:30;;;;;;;0.30;0.20;;;9.70;99.90;;;;;;4977505;28;20540;-64
2023/11/11 09:46:57;;;;;;;0.30;0.30;;;9.90;99.90;;;;;;4977424;28;20206;-63
2023/11/11 09:49:24;;;;;;;0.30;0.30;;;10.20;99.90;;;;;;4977534;28;20628;-64
2023/11/11 09:51:50;;;;;;;0.30;0.30;;;10.90;99.90;;;;;;4977556;28;20733;-64
2023/11/11 09:54:16;;;;;;;0.33;0.33;;;11.80;99.90;;;;;;4977081;28;20414;-64
2023/11/11 09:56:43;;;;;;;0.30;0.30;;;12.80;99.90;;;;;;4977404;28;20407;-65
2023/11/11 09:59:14;;;;;;;0.30;0.30;;;13.80;99.90;;;;;;4977380;28;20906;-65
2023/11/11 10:01:42;;;;;;;0.30;0.30;;;14.70;99.30;;;;;;4977565;28;20400;-65
2023/11/11 10:04:09;;;;;;;0.40;0.40;;;15.60;96.90;;;;;;4976936;28;20487;-65
2023/11/11 10:06:36;;;;;;;0.30;0.30;;;16.30;95.10;;;;;;4977008;28;20562;-65
2023/11/11 10:09:04;;;;;;;0.90;0.90;;;16.80;93.90;;;;;;4977256;28;20173;-65
2023/11/11 10:11:30;;;;;;;0.37;0.37;;;17.30;93.50;;;;;;4976938;28;20400;-65
2023/11/11 10:13:56;;;;;;;0.30;0.30;;;17.60;91.00;;;;;;4976579;28;20408;-65
2023/11/11 10:16:22;;;;;;;0.30;0.20;;;18.00;90.60;;;;;;4976973;28;20430;-64
2023/11/11 10:18:51;;;;;;;0.30;0.30;;;17.90;88.60;;;;;;4977000;28;20165;-65
2023/11/11 10:21:20;;;;;;;0.30;0.30;;;17.30;88.80;;;;;;4976911;28;20442;-66
2023/11/11 10:23:47;;;;;;;0.30;0.30;;;16.70;88.60;;;;;;4976895;28;20406;-66
2023/11/11 10:26:15;;;;;;;0.30;0.30;;;16.00;90.30;;;;;;4976672;28;20424;-66
2023/11/11 10:28:43;;;;;;;0.30;0.30;;;15.30;90.80;;;;;;4959204;28;20942;-65
2023/11/11 10:31:09;;;;;;;0.30;0.30;;;14.80;91.50;;;;;;4976576;28;20764;-65
2023/11/11 10:33:36;;;;;;;0.30;0.30;;;14.50;91.80;;;;;;4976620;28;20378;-65
2023/11/11 10:36:02;;;;;;;0.30;0.30;;;14.40;92.30;;;;;;4976045;28;20428;-65
2023/11/11 10:38:28;;;;;;;0.30;0.30;;;14.40;92.40;;;;;;4976840;28;20463;-65
2023/11/11 10:40:54;;;;;;;0.40;0.40;;;14.30;91.70;;;;;;4976426;28;20757;-65
2023/11/11 10:43:20;;;;;;;0.30;0.30;;;14.00;92.20;;;;;;4976455;28;20382;-65
2023/11/11 10:45:47;;;;;;;0.30;0.30;;;13.90;93.10;;;;;;4976148;28;20191;-64
2023/11/11 10:48:14;;;;;;;0.30;0.30;;;13.90;93.10;;;;;;4976561;28;20455;-64
2023/11/11 10:50:42;;;;;;;0.30;0.30;;;13.50;92.40;;;;;;4976581;28;20567;-64
2023/11/11 10:53:09;;;;;;;0.30;0.30;;;13.00;93.40;;;;;;4976591;28;20409;-65
2023/11/11 10:55:38;;;;;;;0.40;0.40;;;12.90;93.10;;;;;;4975999;28;20457;-64
2023/11/11 10:58:09;;;;;;;0.33;0.33;;;12.70;93.80;;;;;;4976146;28;20924;-64
2023/11/11 11:00:37;;;;;;;0.30;0.30;;;12.50;93.70;;;;;;4976228;28;20505;-63
2023/11/11 11:03:04;;;;;;;0.30;0.30;;;12.30;93.70;;;;;;4976230;28;20855;-64
2023/11/11 11:05:49;;;;;;;0.30;0.30;;;12.10;93.80;;;;;;4975802;28;20473;-65
2023/11/11 11:08:32;;;;;;;0.40;0.40;;;11.90;94.30;;;;;;4975977;28;20462;-65
2023/11/11 11:11:07;;;;;;;0.30;0.30;;;11.60;95.00;;;;;;4976387;28;20767;-63
2023/11/11 11:13:36;;;;;;;0.30;0.30;;;11.40;95.50;;;;;;4975893;28;20411;-64
2023/11/11 11:16:02;;;;;;;0.30;0.30;;;11.30;96.00;;;;;;4975529;28;20431;-65
2023/11/11 11:18:28;;;;;;;0.30;0.30;;;11.10;95.50;;;;;;4958460;28;20427;-64
2023/11/11 11:20:54;;;;;;;0.37;0.37;;;11.00;96.30;;;;;;4975788;28;20214;-64
2023/11/11 11:23:22;;;;;;;0.30;0.30;;;11.00;96.50;;;;;;4975927;28;20646;-64
2023/11/11 11:25:50;;;;;;;0.30;0.30;;;11.10;96.20;;;;;;4975404;28;20469;-63
2023/11/11 11:28:22;;;;;;;0.30;0.30;;;11.20;96.40;;;;;;4975868;28;20988;-63
2023/11/11 11:30:49;;;;;;;0.30;0.30;;;11.30;95.80;;;;;;4975805;28;20394;-63
2023/11/11 11:33:20;;;;;;;0.30;0.30;;;11.40;95.60;;;;;;4975691;28;20385;-64
2023/11/11 11:35:48;;;;;;;0.30;0.27;;;11.50;95.40;;;;;;4975335;28;20426;-65
2023/11/11 11:38:28;;;;;;;0.30;0.30;;;11.60;95.20;;;;;;4975585;28;20441;-64
2023/11/11 11:41:19;;;;;;;0.30;0.30;;;11.60;94.90;;;;;;4958376;28;20488;-64
2023/11/11 11:43:51;;;;;;;0.30;0.30;;;11.50;94.80;;;;;;4975434;28;20495;-66
2023/11/11 11:46:21;;;;;;;0.40;0.40;;;11.60;94.40;;;;;;4975275;28;20437;-64
2023/11/11 11:48:47;;;;;;;0.30;0.30;;;11.60;94.90;;;;;;4974870;28;20907;-64
2023/11/11 11:51:20;;;;;;;0.30;0.30;;;11.60;94.60;;;;;;4975356;28;20411;-64
2023/11/11 11:53:53;;;;;;;0.30;0.30;;;11.50;94.60;;;;;;4975323;28;20496;-65
2023/11/11 11:56:32;;;;;;;0.30;0.30;;;11.30;94.80;;;;;;4975387;28;20942;-65
2023/11/11 11:59:00;;;;;;;0.30;0.30;;;11.20;96.10;;;;;;4961075;28;20465;-64
2023/11/11 12:01:28;;;;;;;0.30;0.30;;;11.10;96.10;;;;;;4978056;28;20414;-64
2023/11/11 12:03:55;;;;;;;0.30;0.30;;;11.10;96.10;;;;;;4977565;28;20422;-64
2023/11/11 12:06:24;;;;;;;0.30;0.30;;;10.90;95.80;;;;;;4976993;28;20453;-65
2023/11/11 12:08:51;;;;;;;0.30;0.30;;;10.80;96.30;;;;;;4975102;28;20525;-65
2023/11/11 12:11:27;;;;;;;0.30;0.30;;;10.80;96.40;;;;;;4975111;28;20461;-64
2023/11/11 12:14:13;;;;;;;0.30;0.30;;;10.90;96.50;;;;;;4974926;28;20411;-65
2023/11/11 12:16:47;;;;;;;0.30;0.30;;;10.80;96.10;;;;;;4974796;28;20491;-63
2023/11/11 12:19:14;;;;;;;0.30;0.27;;;10.80;96.00;;;;;;4975025;28;20740;-65
2023/11/11 12:21:49;;;;;;;0.30;0.30;;;10.80;96.00;;;;;;4974896;28;20441;-64
2023/11/11 12:24:18;;;;;;;0.30;0.30;;;10.80;96.50;;;;;;4974767;28;20735;-65
2023/11/11 12:26:48;;;;;;;0.30;0.30;;;10.80;96.20;;;;;;4974772;28;20995;-64
2023/11/11 12:29:15;;;;;;;0.30;0.30;;;10.80;95.70;;;;;;4974795;28;20407;-65
2023/11/11 12:31:45;;;;;;;0.30;0.30;;;10.70;96.10;;;;;;4974625;28;20409;-65
2023/11/11 12:34:11;;;;;;;0.30;0.30;;;10.50;97.10;;;;;;4974570;28;20465;-64
2023/11/11 12:36:38;;;;;;;0.30;0.30;;;10.20;99.90;;;;;;4974486;28;20475;-64
2023/11/11 12:39:08;;;;;;;0.30;0.20;;;10.00;99.90;;;;;;4974571;28;20416;-64
2023/11/11 12:41:37;;;;;;;0.30;0.30;;;9.70;99.90;;;;;;4974623;28;20169;-64
2023/11/11 12:44:04;;;;;;;0.30;0.30;;;9.30;99.90;;;;;;4956907;28;20471;-64
2023/11/11 12:46:30;;;;;;;0.30;0.30;;;9.00;99.90;;;;;;4974294;28;20664;-64
2023/11/11 12:48:56;;;;;;;0.30;0.30;;;8.80;99.90;;;;;;4974223;28;20219;-65
2023/11/11 12:51:28;;;;;;;0.30;0.30;;;8.70;99.90;;;;;;4973887;28;20196;-64
2023/11/11 12:53:55;;;;;;;0.30;0.30;;;8.60;99.90;;;;;;4974106;28;20348;-66
2023/11/11 12:56:21;;;;;;;0.40;0.40;;;8.60;99.90;;;;;;4974301;28;20331;-65
2023/11/11 12:58:47;;;;;;;0.30;0.30;;;8.80;99.90;;;;;;4975582;28;20660;-65
2023/11/11 13:01:22;;;;;;;0.30;0.30;;;8.80;99.90;;;;;;4980768;28;20172;-65
2023/11/11 13:03:50;;;;;;;0.30;0.30;;;8.90;99.90;;;;;;4980536;28;20215;-64
2023/11/11 13:06:16;;;;;;;0.30;0.30;;;8.90;99.90;;;;;;4980598;28;20705;-64
2023/11/11 13:08:50;;;;;;;0.30;0.30;;;8.90;99.90;;;;;;4980842;28;20187;-65
2023/11/11 13:11:16;;;;;;;0.30;0.30;;;8.90;99.90;;;;;;4980676;28;20684;-64
2023/11/11 13:13:42;;;;;;;0.30;0.30;;;9.00;99.90;;;;;;4981031;28;20163;-64
2023/11/11 13:16:10;;;;;;;0.30;0.30;;;9.10;99.90;;;;;;4980416;28;20665;-64
2023/11/11 13:18:36;;;;;;;0.30;0.30;;;9.20;99.90;;;;;;4980715;28;20163;-64
2023/11/11 13:21:05;;;;;;;0.30;0.30;;;9.20;99.90;;;;;;4980690;28;20164;-66
2023/11/11 13:23:34;;;;;;;0.30;0.20;;;9.30;99.90;;;;;;4981018;28;20242;-64
2023/11/11 13:26:00;;;;;;;0.30;0.30;;;9.30;99.90;;;;;;4980287;28;20185;-64
2023/11/11 13:28:28;;;;;;;0.30;0.30;;;9.50;99.90;;;;;;4980867;28;20209;-64
2023/11/11 13:30:54;;;;;;;0.30;0.30;;;9.60;99.90;;;;;;4980819;28;20399;-64
2023/11/11 13:33:21;;;;;;;0.30;0.30;;;9.80;99.90;;;;;;4980810;28;20180;-64
2023/11/11 13:35:55;;;;;;;0.30;0.30;;;10.00;99.90;;;;;;4980141;28;20184;-64
2023/11/11 13:38:20;;;;;;;0.30;0.30;;;10.00;99.90;;;;;;4980852;28;20304;-64
2023/11/11 13:40:48;;;;;;;0.63;0.63;;;10.10;99.90;;;;;;4980588;28;20254;-65
2023/11/11 13:43:14;;;;;;;0.30;0.30;;;10.10;99.90;;;;;;4980547;28;20198;-65
2023/11/11 13:45:40;;;;;;;0.30;0.30;;;10.10;99.90;;;;;;4979767;28;20443;-64
2023/11/11 13:48:07;;;;;;;0.30;0.30;;;10.10;99.90;;;;;;4980167;28;20193;-64
2023/11/11 13:50:33;;;;;;;0.47;0.47;;;10.20;99.90;;;;;;4980732;28;20414;-65
2023/11/11 13:52:59;;;;;;;0.30;0.30;;;10.20;99.90;;;;;;4980518;28;20494;-64
2023/11/11 13:55:26;;;;;;;0.30;0.30;;;10.20;99.90;;;;;;4980017;28;20193;-65
2023/11/11 13:57:53;;;;;;;0.40;0.40;;;10.20;99.90;;;;;;4980200;28;20229;-65
2023/11/11 14:00:28;;;;;;;0.30;0.30;;;10.30;99.90;;;;;;4980505;28;20451;-65
2023/11/11 14:03:02;;;;;;;0.30;0.30;;;10.30;99.90;;;;;;4980494;28;20204;-65
2023/11/11 14:05:28;;;;;;;0.30;0.30;;;10.20;99.90;;;;;;4980067;28;20764;-65
2023/11/11 14:07:54;;;;;;;0.30;0.30;;;10.20;99.90;;;;;;4980217;28;20882;-65
2023/11/11 14:10:23;;;;;;;0.30;0.30;;;10.20;99.90;;;;;;4979020;28;20408;-65
2023/11/11 14:12:50;;;;;;;0.30;0.30;;;10.10;99.90;;;;;;4977336;28;20500;-64
2023/11/11 14:15:18;;;;;;;0.30;0.30;;;10.10;99.90;;;;;;4976737;28;20228;-65
2023/11/11 14:17:45;;;;;;;0.30;0.30;;;10.10;99.90;;;;;;4977202;28;20898;-65
2023/11/11 14:20:13;;;;;;;0.30;0.30;;;10.00;99.90;;;;;;4977115;28;20189;-64
2023/11/11 14:22:39;;;;;;;0.30;0.30;;;9.90;99.90;;;;;;4959601;28;20174;-64
2023/11/11 14:25:08;;;;;;;0.30;0.30;;;9.80;99.90;;;;;;4976528;28;20437;-64
2023/11/11 14:27:35;;;;;;;0.40;0.40;;;9.80;99.90;;;;;;4976746;28;20222;-65
2023/11/11 14:30:01;;;;;;;0.30;0.30;;;9.80;99.90;;;;;;4976952;28;20251;-64
2023/11/11 14:32:26;;;;;;;0.30;0.30;;;9.80;99.90;;;;;;4976766;28;20165;-65
2023/11/11 14:34:52;;;;;;;0.30;0.30;;;9.80;99.90;;;;;;4976676;28;20180;-64
2023/11/11 14:37:17;;;;;;;0.50;0.50;;;9.80;99.90;;;;;;4976698;28;20180;-64
2023/11/11 14:39:45;;;;;;;0.30;0.30;;;9.80;99.90;;;;;;4976746;28;20297;-64
2023/11/11 14:42:14;;;;;;;0.30;0.30;;;9.70;99.90;;;;;;4959440;28;20184;-64
2023/11/11 14:44:40;;;;;;;0.30;0.30;;;9.70;99.90;;;;;;4976127;28;20169;-65
2023/11/11 14:47:08;;;;;;;0.30;0.27;;;9.70;99.90;;;;;;4976533;28;20592;-65
2023/11/11 14:49:35;;;;;;;0.30;0.30;;;9.70;99.90;;;;;;4976587;28;20168;-65
2023/11/11 14:52:01;;;;;;;0.30;0.30;;;9.70;99.90;;;;;;4976535;28;20585;-65
2023/11/11 14:54:29;;;;;;;0.30;0.30;;;9.70;99.90;;;;;;4976142;28;20201;-64
2023/11/11 14:56:56;;;;;;;0.30;0.30;;;9.60;99.90;;;;;;4976416;28;20266;-66
2023/11/11 14:59:21;;;;;;;0.30;0.30;;;9.60;99.90;;;;;;4976322;28;20235;-64
2023/11/11 15:01:47;;;;;;;0.30;0.30;;;9.50;99.90;;;;;;4976364;28;20176;-63
2023/11/11 15:04:14;;;;;;;0.30;0.30;;;9.40;99.90;;;;;;4975996;28;20256;-64
2023/11/11 15:06:40;;;;;;;0.30;0.20;;;9.40;99.90;;;;;;4976068;28;20231;-66
2023/11/11 15:09:05;;;;;;;0.30;0.30;;;9.30;99.90;;;;;;4976216;28;20230;-64
2023/11/11 15:11:32;;;;;;;0.30;0.30;;;9.30;99.90;;;;;;4976257;28;20412;-66
2023/11/11 15:14:03;;;;;;;0.30;0.30;;;9.40;99.90;;;;;;4975544;28;20531;-66
2023/11/11 15:16:29;;;;;;;0.30;0.30;;;9.30;99.90;;;;;;4975279;28;20258;-65
2023/11/11 15:18:55;;;;;;;0.30;0.30;;;9.30;99.90;;;;;;4975642;28;20168;-65
2023/11/11 15:21:26;;;;;;;0.77;0.77;;;9.30;99.90;;;;;;4975654;28;20819;-64
2023/11/11 15:23:52;;;;;;;0.77;0.77;;;9.30;99.90;;;;;;4956992;28;20176;-67
2023/11/11 15:26:17;;;;;;;0.30;0.30;;;9.30;99.90;;;;;;4975818;28;20187;-65
2023/11/11 15:28:44;;;;;;;0.40;0.40;;;9.20;99.90;;;;;;4974932;28;20659;-64
2023/11/11 15:31:10;;;;;;;0.30;0.30;;;9.20;99.90;;;;;;4975714;28;20164;-65
2023/11/11 15:33:41;;;;;;;0.30;0.30;;;9.20;99.90;;;;;;4975760;28;20168;-64
2023/11/11 15:36:07;;;;;;;0.30;0.30;;;9.20;99.90;;;;;;4974882;28;20276;-65
2023/11/11 15:38:32;;;;;;;0.30;0.27;;;9.20;99.90;;;;;;4975415;28;20287;-65
2023/11/11 15:40:59;;;;;;;0.30;0.30;;;9.10;99.90;;;;;;4975278;28;20431;-64
2023/11/11 15:43:24;;;;;;;0.30;0.30;;;9.10;99.90;;;;;;4975758;28;20176;-64
2023/11/11 15:45:51;;;;;;;0.40;0.40;;;9.00;99.90;;;;;;4973959;28;20196;-64
2023/11/11 15:48:17;;;;;;;0.30;0.30;;;9.00;99.90;;;;;;4958114;28;20203;-64
2023/11/11 15:50:42;;;;;;;0.40;0.40;;;9.00;99.90;;;;;;4975469;28;20568;-64
2023/11/11 15:53:09;;;;;;;0.30;0.30;;;9.00;99.90;;;;;;4975568;28;20164;-63
2023/11/11 15:55:34;;;;;;;0.50;0.50;;;8.90;99.90;;;;;;4974871;28;20596;-64
2023/11/11 15:58:00;;;;;;;0.30;0.30;;;8.90;99.90;;;;;;4975143;28;20254;-64
2023/11/11 16:00:27;;;;;;;0.30;0.30;;;8.80;99.90;;;;;;4973661;28;20174;-64
2023/11/11 16:02:53;;;;;;;0.35;0.35;;;8.70;99.90;;;;;;4975268;28;20181;-64
2023/11/11 16:05:19;;;;;;;0.33;0.33;;;8.70;99.90;;;;;;4972495;28;20259;-65
2023/11/11 16:07:45;;;;;;;0.30;0.30;;;8.60;99.90;;;;;;4974736;28;20203;-64
2023/11/11 16:10:11;;;;;;;0.30;0.30;;;8.60;99.90;;;;;;4975000;28;20419;-64
2023/11/11 16:12:37;;;;;;;0.30;0.30;;;8.50;99.90;;;;;;4974782;28;20168;-64
2023/11/11 16:15:04;;;;;;;0.30;0.30;;;8.50;99.90;;;;;;4973909;28;20209;-63
2023/11/11 16:17:29;;;;;;;0.40;0.40;;;8.50;99.90;;;;;;4974252;28;20206;-65
2023/11/11 16:19:57;;;;;;;0.30;0.30;;;8.40;99.90;;;;;;4956787;28;20212;-63
2023/11/11 16:22:24;;;;;;;0.35;0.35;;;8.40;99.90;;;;;;4955278;29;20522;-65
2023/11/11 16:24:50;;;;;;;0.40;0.40;;;8.40;99.90;;;;;;4964081;28;20172;-64
2023/11/11 16:27:15;;;;;;;0.30;0.30;;;8.40;99.90;;;;;;4974364;28;20211;-65
2023/11/11 16:29:41;;;;;;;0.47;0.47;;;8.30;99.90;;;;;;4974354;28;20184;-65
2023/11/11 16:32:07;;;;;;;0.30;0.30;;;8.30;99.90;;;;;;4973743;28;20654;-65
2023/11/11 16:34:32;;;;;;;0.30;0.30;;;8.30;99.90;;;;;;4973444;28;20212;-64
2023/11/11 16:36:58;;;;;;;0.30;0.30;;;8.30;99.90;;;;;;4973564;28;20459;-65
2023/11/11 16:39:24;;;;;;;0.37;0.37;;;8.20;99.90;;;;;;4973705;28;20176;-64
2023/11/11 16:41:49;;;;;;;0.33;0.33;;;8.30;99.90;;;;;;4974094;28;20427;-64
2023/11/11 16:44:16;;;;;;;0.50;0.50;;;8.20;99.90;;;;;;4973624;28;20607;-64
2023/11/11 16:46:42;;;;;;;0.50;0.50;;;8.10;99.90;;;;;;4956642;28;20218;-64
2023/11/11 16:49:08;;;;;;;0.30;0.30;;;8.10;99.90;;;;;;4973940;28;20171;-65
2023/11/11 16:51:35;;;;;;;0.32;0.32;;;8.10;99.90;;;;;;4974084;28;20423;-64
2023/11/11 16:54:03;;;;;;;0.32;0.32;;;8.00;99.90;;;;;;4973288;28;20194;-65
2023/11/11 16:56:29;;;;;;;0.30;0.30;;;7.90;99.90;;;;;;4973776;28;20271;-64
2023/11/11 16:58:56;;;;;;;0.40;0.40;;;7.90;99.90;;;;;;4973988;28;20172;-64